createdAt,value
2022-08-03T00:01:51.932Z,22.63
2022-08-03T00:04:19.790Z,22.63
2022-08-03T00:06:46.771Z,22.60
2022-08-03T00:09:14.044Z,22.59
2022-08-03T00:11:41.338Z,22.54
2022-08-03T00:14:09.109Z,22.46
2022-08-03T00:16:36.261Z,22.45
2022-08-03T00:19:06.468Z,22.44
2022-08-03T00:21:33.728Z,22.40
2022-08-03T00:24:00.717Z,22.36
2022-08-03T00:26:28.191Z,22.23
2022-08-03T00:28:55.238Z,22.22
2022-08-03T00:31:40.198Z,22.15
2022-08-03T00:34:10.306Z,22.01
2022-08-03T00:36:39.526Z,22.00
2022-08-03T00:39:06.825Z,21.99
2022-08-03T00:41:34.009Z,21.96
2022-08-03T00:44:01.394Z,21.90
2022-08-03T00:46:28.368Z,21.91
2022-08-03T00:48:56.324Z,21.89
2022-08-03T00:51:24.138Z,21.93
2022-08-03T00:53:51.847Z,21.91
2022-08-03T00:56:19.685Z,21.91
2022-08-03T00:58:47.544Z,21.94
2022-08-03T01:01:15.275Z,21.95
2022-08-03T01:03:43.535Z,21.89
2022-08-03T01:06:18.914Z,21.91
2022-08-03T01:09:11.677Z,21.93
2022-08-03T01:12:00.690Z,21.88
2022-08-03T01:14:57.049Z,21.88
2022-08-03T01:17:40.347Z,21.90
2022-08-03T01:20:12.288Z,21.89
2022-08-03T01:23:20.119Z,21.88
2022-08-03T01:26:14.532Z,21.82
2022-08-03T01:29:04.666Z,21.77
2022-08-03T01:32:58.411Z,21.78
2022-08-03T01:34:48.873Z,21.75
2022-08-03T01:37:23.930Z,21.78
2022-08-03T01:39:52.164Z,21.77
2022-08-03T01:42:21.682Z,21.77
2022-08-03T01:44:51.439Z,21.77
2022-08-03T01:47:21.623Z,21.76
2022-08-03T01:49:51.060Z,21.73
2022-08-03T01:52:20.612Z,21.72
2022-08-03T01:54:51.706Z,21.72
2022-08-03T01:57:20.116Z,21.67
2022-08-03T01:59:49.420Z,21.63
2022-08-03T02:02:33.633Z,21.61
2022-08-03T02:05:05.989Z,21.57
2022-08-03T02:07:41.251Z,21.49
2022-08-03T02:10:11.814Z,21.45
2022-08-03T02:12:41.251Z,21.45
2022-08-03T02:15:09.533Z,21.38
2022-08-03T02:17:40.325Z,21.32
2022-08-03T02:20:11.519Z,21.33
2022-08-03T02:22:43.533Z,21.32
2022-08-03T02:25:13.890Z,21.33
2022-08-03T02:27:49.146Z,21.27
2022-08-03T02:30:16.835Z,21.30
2022-08-03T02:32:51.554Z,21.31
2022-08-03T02:35:20.955Z,21.30
2022-08-03T02:37:52.739Z,21.32
2022-08-03T02:40:24.764Z,21.33
2022-08-03T02:42:56.386Z,21.30
2022-08-03T02:45:26.264Z,21.30
2022-08-03T02:47:58.373Z,21.32
2022-08-03T02:50:28.787Z,21.33
2022-08-03T02:52:58.474Z,21.32
2022-08-03T02:55:27.646Z,21.32
2022-08-03T02:58:01.527Z,21.25
2022-08-03T03:00:35.107Z,21.27
2022-08-03T03:03:07.101Z,21.23
2022-08-03T03:05:55.016Z,21.21
2022-08-03T03:08:28.722Z,21.14
2022-08-03T03:11:01.116Z,21.13
2022-08-03T03:13:30.783Z,21.10
2022-08-03T03:16:04.084Z,21.08
2022-08-03T03:18:37.498Z,21.05
2022-08-03T03:21:07.985Z,21.05
2022-08-03T03:23:41.079Z,21.05
2022-08-03T03:26:09.165Z,21.03
2022-08-03T03:28:37.428Z,21.02
2022-08-03T03:31:09.128Z,21.06
2022-08-03T03:33:37.683Z,21.09
2022-08-03T03:36:06.630Z,21.11
2022-08-03T03:38:34.870Z,21.13
2022-08-03T03:41:02.371Z,21.11
2022-08-03T03:43:29.870Z,21.15
2022-08-03T03:45:58.737Z,21.18
2022-08-03T03:48:26.582Z,21.22
2022-08-03T03:50:53.861Z,21.25
2022-08-03T03:53:21.800Z,21.27
2022-08-03T03:55:57.928Z,21.28
2022-08-03T03:58:31.753Z,21.28
2022-08-03T04:00:59.271Z,21.31
2022-08-03T04:03:26.629Z,21.28
2022-08-03T04:06:12.429Z,21.24
2022-08-03T04:08:58.890Z,21.27
2022-08-03T04:11:31.987Z,21.27
2022-08-03T04:14:03.839Z,21.27
2022-08-03T04:16:35.236Z,21.19
2022-08-03T04:19:09.475Z,21.13
2022-08-03T04:21:44.876Z,21.13
2022-08-03T04:24:14.074Z,21.09
2022-08-03T04:26:43.441Z,21.14
2022-08-03T04:29:15.660Z,21.25
2022-08-03T04:31:45.533Z,21.32
2022-08-03T04:34:12.689Z,21.39
2022-08-03T04:36:51.586Z,21.48
2022-08-03T04:39:25.860Z,21.55
2022-08-03T04:42:08.149Z,21.63
2022-08-03T04:44:40.683Z,21.63
2022-08-03T04:47:09.154Z,21.60
2022-08-03T04:49:40.257Z,21.65
2022-08-03T04:52:08.803Z,21.68
2022-08-03T04:54:50.183Z,21.78
2022-08-03T04:57:22.857Z,21.73
2022-08-03T05:00:01.694Z,21.76
2022-08-03T05:02:31.368Z,21.82
2022-08-03T05:04:59.006Z,21.91
2022-08-03T05:07:35.787Z,21.97
2022-08-03T05:10:15.797Z,21.97
2022-08-03T05:12:49.405Z,22.03
2022-08-03T05:15:16.705Z,22.15
2022-08-03T05:17:44.118Z,22.18
2022-08-03T05:20:12.731Z,22.27
2022-08-03T05:22:39.730Z,22.31
2022-08-03T05:25:07.355Z,22.34
2022-08-03T05:27:34.905Z,22.55
2022-08-03T05:30:30.867Z,22.69
2022-08-03T05:32:50.243Z,22.91
2022-08-03T05:36:00.955Z,23.08
2022-08-03T05:38:06.347Z,23.26
2022-08-03T05:40:36.509Z,23.46
2022-08-03T05:43:04.236Z,23.64
2022-08-03T05:45:31.732Z,23.70
2022-08-03T05:47:58.695Z,23.83
2022-08-03T05:50:26.612Z,24.02
2022-08-03T05:52:57.949Z,24.17
2022-08-03T05:55:26.098Z,24.17
2022-08-03T05:57:56.743Z,24.31
2022-08-03T06:00:24.377Z,24.45
2022-08-03T06:02:52.705Z,24.54
2022-08-03T06:05:20.727Z,24.48
2022-08-03T06:07:47.731Z,24.52
2022-08-03T06:10:37.578Z,24.68
2022-08-03T06:13:02.940Z,24.73
2022-08-03T06:15:30.914Z,24.82
2022-08-03T06:18:01.731Z,24.91
2022-08-03T06:20:29.550Z,24.92
2022-08-03T06:23:00.852Z,25.02
2022-08-03T06:25:29.207Z,25.05
2022-08-03T06:27:56.666Z,25.18
2022-08-03T06:30:23.988Z,25.25
2022-08-03T06:32:51.982Z,25.27
2022-08-03T06:35:20.553Z,25.29
2022-08-03T06:37:50.050Z,25.41
2022-08-03T06:40:21.723Z,25.51
2022-08-03T06:42:52.190Z,25.57
2022-08-03T06:45:19.129Z,25.67
2022-08-03T06:47:46.825Z,25.70
2022-08-03T06:50:16.941Z,25.80
2022-08-03T06:52:45.524Z,25.82
2022-08-03T06:55:12.913Z,25.97
2022-08-03T06:57:40.268Z,26.19
2022-08-03T07:00:12.445Z,26.37
2022-08-03T07:02:42.234Z,26.54
2022-08-03T07:05:10.656Z,26.69
2022-08-03T07:07:38.620Z,26.84
2022-08-03T07:10:07.288Z,26.85
2022-08-03T07:12:35.981Z,26.76
2022-08-03T07:15:04.298Z,26.85
2022-08-03T07:17:34.474Z,26.97
2022-08-03T07:20:03.276Z,27.19
2022-08-03T07:22:30.538Z,27.17
2022-08-03T07:24:58.806Z,27.34
2022-08-03T07:27:27.232Z,27.41
2022-08-03T07:29:55.867Z,27.52
2022-08-03T07:32:23.924Z,27.60
2022-08-03T07:34:51.539Z,27.76
2022-08-03T07:37:19.195Z,27.93
2022-08-03T07:39:47.017Z,28.06
2022-08-03T07:42:14.352Z,28.17
2022-08-03T07:44:43.006Z,28.29
2022-08-03T07:47:10.079Z,28.35
2022-08-03T07:49:50.105Z,28.50
2022-08-03T07:52:35.484Z,28.58
2022-08-03T07:55:03.784Z,28.64
2022-08-03T07:57:30.975Z,28.60
2022-08-03T08:00:02.425Z,28.64
2022-08-03T08:02:40.123Z,28.86
2022-08-03T08:05:09.084Z,29.01
2022-08-03T08:07:36.042Z,29.07
2022-08-03T08:10:04.566Z,29.18
2022-08-03T08:12:32.230Z,29.24
2022-08-03T08:15:00.023Z,29.25
2022-08-03T08:17:27.516Z,29.21
2022-08-03T08:19:56.836Z,29.30
2022-08-03T08:22:30.068Z,29.29
2022-08-03T08:24:59.712Z,29.43
2022-08-03T08:27:28.493Z,29.43
2022-08-03T08:30:21.915Z,29.47
2022-08-03T08:32:50.411Z,29.56
2022-08-03T08:35:18.324Z,29.61
2022-08-03T08:37:50.829Z,29.65
2022-08-03T08:40:22.045Z,29.54
2022-08-03T08:42:59.035Z,29.72
2022-08-03T08:45:28.154Z,29.82
2022-08-03T08:48:01.032Z,29.80
2022-08-03T08:50:31.054Z,29.92
2022-08-03T08:53:02.452Z,30.08
2022-08-03T08:55:58.619Z,30.18
2022-08-03T08:58:23.183Z,30.36
2022-08-03T09:00:51.012Z,30.46
2022-08-03T09:03:29.759Z,30.33
2022-08-03T09:06:01.424Z,30.46
2022-08-03T09:08:33.149Z,30.61
2022-08-03T09:11:00.667Z,30.78
2022-08-03T09:13:29.462Z,30.82
2022-08-03T09:16:10.110Z,30.96
2022-08-03T09:18:37.687Z,31.03
2022-08-03T09:21:32.080Z,31.13
2022-08-03T09:24:04.406Z,31.21
2022-08-03T09:26:35.682Z,31.30
2022-08-03T09:29:14.983Z,31.33
2022-08-03T09:31:47.203Z,31.37
2022-08-03T09:34:17.715Z,31.15
2022-08-03T09:36:46.849Z,31.03
2022-08-03T09:39:41.161Z,31.06
2022-08-03T09:42:14.641Z,30.98
2022-08-03T09:44:49.360Z,31.16
2022-08-03T09:47:45.091Z,31.35
2022-08-03T09:50:13.096Z,31.46
2022-08-03T09:52:52.314Z,31.57
2022-08-03T09:56:34.126Z,31.79
2022-08-03T09:58:14.816Z,31.89
2022-08-03T10:01:06.255Z,31.97
2022-08-03T10:04:02.912Z,32.02
2022-08-03T10:06:28.844Z,32.06
2022-08-03T10:09:10.408Z,31.79
2022-08-03T10:11:42.129Z,31.72
2022-08-03T10:14:19.562Z,31.75
2022-08-03T10:16:48.376Z,31.67
2022-08-03T10:19:15.887Z,31.75
2022-08-03T10:21:51.171Z,31.84
2022-08-03T10:24:26.295Z,31.43
2022-08-03T10:27:03.255Z,31.73
2022-08-03T10:29:37.280Z,32.02
2022-08-03T10:32:14.952Z,32.11
2022-08-03T10:34:44.880Z,32.25
2022-08-03T10:37:15.538Z,32.19
2022-08-03T10:39:53.734Z,32.00
2022-08-03T10:42:27.282Z,32.00
2022-08-03T10:45:05.863Z,31.92
2022-08-03T10:47:35.793Z,31.82
2022-08-03T10:50:04.620Z,31.88
2022-08-03T10:52:39.527Z,32.02
2022-08-03T10:55:49.971Z,32.17
2022-08-03T10:58:57.105Z,32.30
2022-08-03T11:01:58.369Z,32.56
2022-08-03T11:04:27.347Z,32.92
2022-08-03T11:07:16.614Z,33.27
2022-08-03T11:09:50.204Z,33.58
2022-08-03T11:12:32.623Z,33.64
2022-08-03T11:15:04.253Z,33.83
2022-08-03T11:17:33.876Z,33.75
2022-08-03T11:20:14.679Z,33.68
2022-08-03T11:22:49.351Z,33.93
2022-08-03T11:25:53.447Z,34.17
2022-08-03T11:28:41.328Z,34.48
2022-08-03T11:34:13.550Z,35.02
2022-08-03T11:37:17.930Z,35.26
2022-08-03T11:39:48.077Z,35.50
2022-08-03T11:42:25.054Z,35.73
2022-08-03T11:44:54.642Z,35.61
2022-08-03T11:47:23.268Z,35.93
2022-08-03T11:49:52.126Z,36.28
2022-08-03T11:52:27.153Z,36.33
2022-08-03T11:54:56.701Z,36.44
2022-08-03T11:59:01.902Z,36.58
2022-08-03T12:00:40.580Z,37.22
2022-08-03T12:03:12.197Z,37.69
2022-08-03T12:05:51.054Z,37.51
2022-08-03T12:08:31.470Z,36.91
2022-08-03T12:11:01.404Z,36.45
2022-08-03T12:14:26.826Z,35.99
2022-08-03T12:16:29.759Z,35.66
2022-08-03T12:19:02.767Z,35.87
2022-08-03T12:21:30.728Z,36.51
2022-08-03T12:24:02.096Z,36.80
2022-08-03T12:26:42.521Z,36.77
2022-08-03T12:29:23.365Z,37.21
2022-08-03T12:31:51.115Z,37.80
2022-08-03T12:34:18.244Z,38.05
2022-08-03T12:36:57.358Z,38.35
2022-08-03T12:39:27.605Z,38.63
2022-08-03T12:41:55.560Z,39.03
2022-08-03T12:44:31.703Z,39.03
2022-08-03T12:47:00.221Z,39.39
2022-08-03T12:49:27.701Z,39.40
2022-08-03T12:52:00.804Z,39.23
2022-08-03T12:54:32.677Z,39.36
2022-08-03T12:57:04.718Z,39.23
2022-08-03T12:59:40.802Z,39.32
2022-08-03T13:02:20.832Z,39.70
2022-08-03T13:04:54.314Z,39.30
2022-08-03T13:07:23.721Z,39.59
2022-08-03T13:09:55.424Z,40.20
2022-08-03T13:12:25.488Z,40.76
2022-08-03T13:14:56.018Z,41.19
2022-08-03T13:17:23.499Z,41.17
2022-08-03T13:22:49.110Z,41.36
2022-08-03T13:25:16.822Z,41.64
2022-08-03T13:28:03.721Z,41.40
2022-08-03T13:30:31.981Z,40.75
2022-08-03T13:33:00.614Z,40.40
2022-08-03T13:35:28.248Z,40.06
2022-08-03T13:37:55.305Z,39.63
2022-08-03T13:40:29.934Z,39.30
2022-08-03T13:42:58.589Z,38.98
2022-08-03T13:45:27.612Z,38.17
2022-08-03T13:47:55.325Z,37.74
2022-08-03T13:50:22.559Z,37.59
2022-08-03T13:52:49.937Z,37.68
2022-08-03T13:55:16.955Z,37.32
2022-08-03T13:58:04.545Z,36.87
2022-08-03T14:00:32.042Z,36.44
2022-08-03T14:03:07.954Z,36.23
2022-08-03T14:05:44.986Z,36.14
2022-08-03T14:08:13.912Z,35.73
2022-08-03T14:10:44.090Z,35.67
2022-08-03T14:13:14.466Z,35.68
2022-08-03T14:15:50.171Z,35.79
2022-08-03T14:18:29.169Z,36.38
2022-08-03T14:21:07.405Z,37.29
2022-08-03T14:23:37.846Z,38.16
2022-08-03T14:26:09.656Z,38.39
2022-08-03T14:28:37.588Z,38.25
2022-08-03T14:31:08.509Z,38.12
2022-08-03T14:33:52.402Z,38.12
2022-08-03T14:36:19.377Z,38.47
2022-08-03T14:38:47.761Z,39.06
2022-08-03T14:41:19.998Z,39.91
2022-08-03T14:44:01.046Z,40.75
2022-08-03T14:46:29.566Z,41.64
2022-08-03T14:50:10.404Z,42.24
2022-08-03T14:51:51.582Z,42.93
2022-08-03T14:54:22.491Z,42.53
2022-08-03T14:56:49.677Z,41.75
2022-08-03T14:59:17.128Z,41.13
2022-08-03T15:02:02.651Z,40.36
2022-08-03T15:04:31.886Z,39.53
2022-08-03T15:06:58.824Z,38.96
2022-08-03T15:09:26.139Z,38.46
2022-08-03T15:11:53.578Z,37.99
2022-08-03T15:14:22.388Z,37.65
2022-08-03T15:17:00.677Z,37.24
2022-08-03T15:20:02.165Z,36.89
2022-08-03T15:22:19.069Z,36.63
2022-08-03T15:24:48.129Z,36.70
2022-08-03T15:27:15.062Z,36.74
2022-08-03T15:30:06.147Z,36.54
2022-08-03T15:32:30.293Z,36.28
2022-08-03T15:34:57.502Z,36.02
2022-08-03T15:37:25.934Z,35.76
2022-08-03T15:40:00.017Z,36.34
2022-08-03T15:42:33.165Z,37.77
2022-08-03T15:45:00.599Z,39.17
2022-08-03T15:47:27.982Z,40.01
2022-08-03T15:49:55.822Z,41.03
2022-08-03T15:52:23.604Z,41.88
2022-08-03T15:54:51.182Z,42.81
2022-08-03T15:57:18.361Z,43.43
2022-08-03T15:59:46.237Z,44.00
2022-08-03T16:02:13.208Z,44.50
2022-08-03T16:04:40.558Z,44.68
2022-08-03T16:07:08.334Z,44.90
2022-08-03T16:09:43.437Z,45.48
2022-08-03T16:12:15.540Z,45.04
2022-08-03T16:14:52.839Z,45.50
2022-08-03T16:17:22.935Z,46.00
2022-08-03T16:19:50.463Z,46.34
2022-08-03T16:22:22.892Z,46.60
2022-08-03T16:24:51.111Z,44.48
2022-08-03T16:27:37.028Z,43.64
2022-08-03T16:30:07.617Z,43.83
2022-08-03T16:32:34.973Z,44.38
2022-08-03T16:35:02.299Z,44.06
2022-08-03T16:37:38.706Z,44.40
2022-08-03T16:40:19.308Z,44.83
2022-08-03T16:42:47.790Z,44.48
2022-08-03T16:45:15.209Z,44.48
2022-08-03T16:47:42.719Z,43.69
2022-08-03T16:50:15.823Z,43.82
2022-08-03T16:52:48.421Z,44.07
2022-08-03T16:55:43.515Z,44.13
2022-08-03T16:58:05.677Z,44.29
2022-08-03T17:00:41.112Z,44.41
2022-08-03T17:03:18.823Z,44.33
2022-08-03T17:05:52.315Z,44.24
2022-08-03T17:08:26.692Z,44.27
2022-08-03T17:10:56.233Z,44.02
2022-08-03T17:13:39.532Z,43.33
2022-08-03T17:16:10.574Z,42.84
2022-08-03T17:18:58.510Z,42.06
2022-08-03T17:21:36.611Z,41.46
2022-08-03T17:24:32.156Z,40.65
2022-08-03T17:27:08.815Z,39.63
2022-08-03T17:29:45.115Z,38.57
2022-08-03T17:32:21.376Z,37.71
2022-08-03T17:34:50.012Z,37.02
2022-08-03T17:37:49.961Z,36.61
2022-08-03T17:40:10.587Z,36.14
2022-08-03T17:42:40.209Z,35.39
2022-08-03T17:45:15.905Z,34.60
2022-08-03T17:47:44.067Z,33.92
2022-08-03T17:50:24.954Z,33.56
2022-08-03T17:53:07.554Z,32.90
2022-08-03T17:55:55.893Z,32.44
2022-08-03T17:59:10.251Z,31.94
2022-08-03T18:02:22.251Z,31.52
2022-08-03T18:05:02.888Z,31.25
2022-08-03T18:07:59.348Z,31.02
2022-08-03T18:10:34.917Z,30.88
2022-08-03T18:13:19.670Z,30.84
2022-08-03T18:15:54.453Z,30.68
2022-08-03T18:18:32.655Z,30.62
2022-08-03T18:21:06.471Z,30.47
2022-08-03T18:23:40.061Z,30.31
2022-08-03T18:26:12.213Z,30.23
2022-08-03T18:28:41.602Z,30.09
2022-08-03T18:31:12.760Z,30.03
2022-08-03T18:34:19.721Z,29.84
2022-08-03T18:36:50.821Z,29.74
2022-08-03T18:39:22.191Z,29.68
2022-08-03T18:41:49.258Z,29.56
2022-08-03T18:44:53.249Z,29.53
2022-08-03T18:47:16.388Z,29.48
2022-08-03T18:49:59.339Z,29.38
2022-08-03T18:52:32.011Z,29.32
2022-08-03T18:55:20.844Z,29.24
2022-08-03T18:58:15.970Z,29.17
2022-08-03T19:00:59.287Z,29.10
2022-08-03T19:03:41.481Z,29.05
2022-08-03T19:06:20.300Z,29.00
2022-08-03T19:09:37.391Z,28.85
2022-08-03T19:12:31.027Z,28.75
2022-08-03T19:15:10.340Z,28.68
2022-08-03T19:17:50.026Z,28.64
2022-08-03T19:20:38.376Z,28.62
2022-08-03T19:23:06.873Z,28.50
2022-08-03T19:25:41.611Z,28.43
2022-08-03T19:28:09.369Z,28.36
2022-08-03T19:30:39.861Z,28.33
2022-08-03T19:33:12.539Z,28.29
2022-08-03T19:35:55.143Z,28.27
2022-08-03T19:38:29.788Z,28.24
2022-08-03T19:41:02.110Z,28.18
2022-08-03T19:43:53.391Z,28.10
2022-08-03T19:46:27.728Z,27.98
2022-08-03T19:49:15.462Z,27.92
2022-08-03T19:52:02.101Z,27.84
2022-08-03T19:54:45.457Z,27.76
2022-08-03T19:57:23.993Z,27.68
2022-08-03T19:59:54.058Z,27.65
2022-08-03T20:02:27.176Z,27.59
2022-08-03T20:04:57.622Z,27.50
2022-08-03T20:07:29.024Z,27.50
2022-08-03T20:10:01.497Z,27.46
2022-08-03T20:12:33.163Z,27.39
2022-08-03T20:15:07.659Z,27.30
2022-08-03T20:17:56.566Z,27.27
2022-08-03T20:20:26.876Z,27.25
2022-08-03T20:22:57.485Z,27.19
2022-08-03T20:25:38.280Z,27.14
2022-08-03T20:28:13.810Z,27.10
2022-08-03T20:30:47.267Z,27.07
2022-08-03T20:33:18.536Z,27.02
2022-08-03T20:35:49.300Z,26.96
2022-08-03T20:38:18.874Z,26.89
2022-08-03T20:40:47.340Z,26.83
2022-08-03T20:43:16.388Z,26.78
2022-08-03T20:46:01.176Z,26.73
2022-08-03T20:48:35.296Z,26.67
2022-08-03T20:51:05.335Z,26.64
2022-08-03T20:53:57.396Z,26.60
2022-08-03T20:56:35.741Z,26.57
2022-08-03T20:59:07.498Z,26.53
2022-08-03T21:01:44.379Z,26.44
2022-08-03T21:04:11.898Z,26.31
2022-08-03T21:06:54.119Z,26.23
2022-08-03T21:09:39.761Z,26.15
2022-08-03T21:12:15.507Z,26.10
2022-08-03T21:15:06.849Z,26.07
2022-08-03T21:17:40.940Z,26.01
2022-08-03T21:20:11.159Z,26.00
2022-08-03T21:22:39.698Z,25.98
2022-08-03T21:25:09.475Z,25.93
2022-08-03T21:27:39.051Z,25.88
2022-08-03T21:30:09.234Z,25.82
2022-08-03T21:32:40.719Z,25.76
2022-08-03T21:35:10.093Z,25.70
2022-08-03T21:37:39.125Z,25.52
2022-08-03T21:40:08.952Z,25.32
2022-08-03T21:42:35.936Z,25.12
2022-08-03T21:45:08.677Z,25.00
2022-08-03T21:47:38.444Z,24.91
2022-08-03T21:50:09.942Z,24.83
2022-08-03T21:52:44.665Z,24.76
2022-08-03T21:55:18.290Z,24.74
2022-08-03T21:57:52.563Z,24.66
2022-08-03T22:00:21.975Z,24.57
2022-08-03T22:02:57.385Z,24.56
2022-08-03T22:05:42.441Z,24.49
2022-08-03T22:08:13.745Z,24.38
2022-08-03T22:10:43.735Z,24.33
2022-08-03T22:13:13.298Z,24.30
2022-08-03T22:15:42.236Z,24.21
2022-08-03T22:18:10.506Z,24.23
2022-08-03T22:20:37.762Z,24.19
2022-08-03T22:23:07.531Z,24.10
2022-08-03T22:25:39.276Z,24.10
2022-08-03T22:28:10.632Z,24.03
2022-08-03T22:30:39.321Z,23.98
2022-08-03T22:33:11.243Z,23.98
2022-08-03T22:35:47.208Z,23.99
2022-08-03T22:38:19.173Z,23.97
2022-08-03T22:40:51.273Z,23.93
2022-08-03T22:43:26.168Z,23.92
2022-08-03T22:46:09.248Z,23.85
2022-08-03T22:48:41.301Z,23.81
2022-08-03T22:51:09.681Z,23.79
2022-08-03T22:53:38.855Z,23.75
2022-08-03T22:56:07.038Z,23.74
2022-08-03T22:58:34.506Z,23.72
2022-08-03T23:01:06.134Z,23.72
2022-08-03T23:03:58.933Z,23.67
2022-08-03T23:06:27.882Z,23.59
2022-08-03T23:08:55.772Z,23.56
2022-08-03T23:11:24.532Z,23.52
2022-08-03T23:13:54.776Z,23.53
2022-08-03T23:16:29.714Z,23.49
2022-08-03T23:18:59.935Z,23.48
2022-08-03T23:22:00.046Z,23.42
2022-08-03T23:24:31.173Z,23.41
2022-08-03T23:26:59.254Z,23.40
2022-08-03T23:29:30.493Z,23.35
2022-08-03T23:31:59.901Z,23.26
2022-08-03T23:34:47.295Z,23.21
2022-08-03T23:37:15.729Z,23.16
2022-08-03T23:39:45.563Z,23.10
2022-08-03T23:42:18.576Z,23.12
2022-08-03T23:44:46.638Z,23.07
2022-08-03T23:47:14.606Z,23.06
2022-08-03T23:49:42.306Z,23.05
2022-08-03T23:52:34.647Z,23.07
2022-08-03T23:55:02.658Z,23.06
2022-08-03T23:57:57.042Z,23.08
